Terminal Aerodrome Forecast
Issued by NWS Greer, SC

Home | Current Version | Previous Version | Text Only | Print | Product List | Glossary On
Versions: 1 2 3 4 5 6 7 8 9 10 11 12 13 14 15 16 17 18 19 20 21
000
FTUS42 KGSP 262320
TAFGSP
TAF
KGSP 262320Z 2700/2724 21010KT P6SM SCT060 BKN250
     FM270400 23006KT P6SM -SHRA BKN050
     FM270500 25005KT P6SM -SHRA VCTS OVC045CB
     FM270700 28004KT 4SM -SHRA OVC040
     FM271000 34006KT P6SM -SHRA OVC040
     FM271100 36007KT P6SM OVC045=

USA.gov is the U.S. government's official web portal to all federal, state and local government web resources and services.